Berkeley, CA

3:04 PM PDT on August 27, 2015 (GMT -0700)
ForestAve | | Change Station
CLOSE
Current Station
Personal Weather Station
Location: Berkeley, CA
Elevation: 318 ft
Nearby Weather Stations

Elev 318 ft 37.86 °N, 122.25 °W | Updated 22 seconds ago

Clear
Clear
77.2 °F
Feels Like 79 °F
N
0.2
Wind Variable Wind from NNW
Gusts 2.5 mph

Today
High -- | Low -- °F
--% Chance of Precip.
Yesterday
High -- | Low -- °F
Precip. -- in
6:34 AM 7:45 PM
Waxing Gibbous, 95% visible
Pressure 30.01 in
Visibility 10.0 miles
Clouds Few 20000 ft
Heat Index 79 °F
Dew Point 59 °F
Humidity 54%
Rainfall 0.00 in
Snow Depth Not available.
UV 1.0 out of 12
Pollen 6.50 out of 12
Air Quality Not available.
Flu Activity Not available.
METAR KOAK 272153Z 27011G18KT 170V280 10SM FEW200 28/13 A3001 RMK AO2 SLP162 T02780133
Pressure 30.01 in
Visibility 10.0 miles
Clouds Few 20000 ft
Heat Index 79 °F
Dew Point 59 °F
Humidity 54%
Rainfall 0.00 in
Snow Depth Not available.
UV 1.0 out of 12
Pollen 6.50 out of 12
Air Quality Not available.
Flu Activity Not available.
METAR KOAK 272153Z 27011G18KT 170V280 10SM FEW200 28/13 A3001 RMK AO2 SLP162 T02780133

10-Day Weather Forecast

×

Almanac

Astronomy

Aug. 27, 2015 Rise Set
Actual Time
Civil Twilight
Nautical Twilight
Astronomical Twilight
Moon
Length of Visible Light
Length of Day
Tomorrow will be .
, % of the Moon is Illuminated

Today's Extremes

State Highs State Lows

Community

WunderPhotos

Upload Photos

1,850,246 photos uploaded!

WunderBlogs® & News

Nearby

Air Quality

  Air Quality AQ Index Pollutant
Not available.

Snow Depth

Station Depth Elevation

Earthquake Activity

City Distance Mag. Time & Date
Minimum magnitude displayed is 2.5.

Coastal Water Temperatures

Place Temperature

Stations

Nearby Weather Stations

Station Location Temp. Windchill Dew Point Humidity Wind Precip. Elev Updated Type